Time;durP1;ratioP1;P1;durP2;ratioP2;P2;SDS_P1;SDS_P2;PMS_P1;PMS_P2;Temp;Humidity;BMP_temperature;BMP_pressure;BME280_temperature;BME280_humidity;BME280_pressure;Samples;Min_cycle;Max_cycle;Signal;HPM_P1;HPM_P2
2023/12/01 00:00:45;;;;;;;61.93;28.97;;;;;;;;;;4983312;28;20465;-84
2023/12/01 00:03:12;;;;;;;65.07;27.43;;;;;;;;;;4981307;28;20484;-84
2023/12/01 00:05:39;;;;;;;65.93;29.77;;;;;;;;;;4985430;28;20459;-84
2023/12/01 00:08:05;;;;;;;65.33;27.93;;;;;;;;;;4987166;28;20531;-84
2023/12/01 00:10:32;;;;;;;67.70;31.83;;;;;;;;;;4983406;28;20510;-85
2023/12/01 00:12:59;;;;;;;67.80;29.20;;;;;;;;;;4989629;28;20503;-84
2023/12/01 00:15:26;;;;;;;63.03;30.87;;;;;;;;;;4987469;28;20511;-84
2023/12/01 00:17:52;;;;;;;67.10;29.93;;;;;;;;;;4990403;28;20575;-84
2023/12/01 00:20:19;;;;;;;68.77;27.90;;;;;;;;;;4986148;28;20469;-84
2023/12/01 00:22:46;;;;;;;69.77;30.13;;;;;;;;;;4995773;28;20476;-85
2023/12/01 00:25:12;;;;;;;64.37;28.00;;;;;;;;;;4987675;28;20476;-85
2023/12/01 00:27:39;;;;;;;67.40;30.83;;;;;;;;;;4989396;28;20460;-85
2023/12/01 00:30:08;;;;;;;67.37;26.93;;;;;;;;;;4986002;28;20832;-86
2023/12/01 00:32:34;;;;;;;59.87;27.83;;;;;;;;;;4984630;28;20850;-85
2023/12/01 00:35:00;;;;;;;65.80;31.47;;;;;;;;;;4987604;28;20480;-84
2023/12/01 00:37:31;;;;;;;61.50;28.10;;;;;;;;;;4983682;28;20460;-85
2023/12/01 00:39:57;;;;;;;65.87;30.10;;;;;;;;;;4993478;28;20480;-84
2023/12/01 00:42:25;;;;;;;57.00;27.87;;;;;;;;;;4997497;28;20498;-85
2023/12/01 00:44:51;;;;;;;63.20;29.80;;;;;;;;;;4997512;28;21067;-85
2023/12/01 00:47:19;;;;;;;72.07;27.03;;;;;;;;;;4982695;28;21301;-85
2023/12/01 00:49:46;;;;;;;62.83;26.97;;;;;;;;;;4989429;28;20536;-85
2023/12/01 00:52:12;;;;;;;59.20;24.97;;;;;;;;;;4992239;28;20467;-84
2023/12/01 00:54:38;;;;;;;71.57;28.83;;;;;;;;;;4981899;28;20527;-85
2023/12/01 00:57:05;;;;;;;52.73;24.03;;;;;;;;;;4987022;28;20524;-85
2023/12/01 00:59:31;;;;;;;51.57;24.13;;;;;;;;;;4989371;28;20907;-85
2023/12/01 01:01:58;;;;;;;53.50;23.40;;;;;;;;;;4981876;28;20499;-85
2023/12/01 01:04:26;;;;;;;61.60;25.87;;;;;;;;;;4990669;28;20508;-84
2023/12/01 01:06:52;;;;;;;56.57;25.83;;;;;;;;;;4983517;28;20512;-85
2023/12/01 01:09:18;;;;;;;52.03;24.10;;;;;;;;;;4984497;28;20578;-85
2023/12/01 01:11:45;;;;;;;54.33;25.10;;;;;;;;;;4982016;28;20217;-84
2023/12/01 01:14:11;;;;;;;54.73;23.30;;;;;;;;;;4981307;28;20499;-84
2023/12/01 01:16:38;;;;;;;58.50;22.97;;;;;;;;;;4986774;28;20543;-84
2023/12/01 01:19:04;;;;;;;52.87;25.50;;;;;;;;;;4984955;28;20464;-83
2023/12/01 01:21:32;;;;;;;52.13;24.43;;;;;;;;;;4991101;28;20520;-84
2023/12/01 01:23:58;;;;;;;58.77;23.53;;;;;;;;;;4992080;28;20520;-84
2023/12/01 01:26:25;;;;;;;56.13;24.17;;;;;;;;;;4980389;28;20563;-84
2023/12/01 01:28:51;;;;;;;49.70;22.43;;;;;;;;;;4985036;28;20488;-84
2023/12/01 01:31:17;;;;;;;59.83;25.37;;;;;;;;;;4981065;28;20507;-84
2023/12/01 01:33:44;;;;;;;50.57;24.60;;;;;;;;;;4983138;28;20968;-83
2023/12/01 01:36:11;;;;;;;57.27;26.50;;;;;;;;;;4986930;28;20554;-84
2023/12/01 01:38:40;;;;;;;61.57;26.80;;;;;;;;;;4980186;28;20487;-87
2023/12/01 01:41:07;;;;;;;69.67;27.60;;;;;;;;;;4985480;28;20967;-87
2023/12/01 01:43:33;;;;;;;55.43;24.60;;;;;;;;;;4986092;28;20460;-86
2023/12/01 01:46:02;;;;;;;53.67;26.83;;;;;;;;;;4984529;28;20515;-87
2023/12/01 01:48:29;;;;;;;53.53;25.83;;;;;;;;;;4991056;28;20459;-86
2023/12/01 01:50:55;;;;;;;62.07;25.60;;;;;;;;;;4989473;28;21206;-87
2023/12/01 01:53:22;;;;;;;54.93;24.27;;;;;;;;;;4987501;28;20964;-86
2023/12/01 01:55:50;;;;;;;55.97;26.33;;;;;;;;;;4999126;28;20520;-86
2023/12/01 01:58:16;;;;;;;63.77;27.47;;;;;;;;;;4981438;28;20456;-87
2023/12/01 02:00:44;;;;;;;51.63;25.37;;;;;;;;;;4981557;28;20458;-87
2023/12/01 02:03:11;;;;;;;67.30;27.87;;;;;;;;;;4990753;28;20503;-86
2023/12/01 02:05:40;;;;;;;61.17;27.20;;;;;;;;;;4982758;28;20524;-86
2023/12/01 02:08:25;;;;;;;51.50;25.50;;;;;;;;;;4996511;28;20454;-87
2023/12/01 02:10:54;;;;;;;51.93;24.90;;;;;;;;;;4984220;28;20502;-87
2023/12/01 02:13:21;;;;;;;48.70;23.80;;;;;;;;;;4985808;28;20463;-87
2023/12/01 02:15:48;;;;;;;53.07;22.70;;;;;;;;;;4986277;28;20504;-85
2023/12/01 02:18:20;;;;;;;55.80;25.30;;;;;;;;;;4980769;28;20468;-86
2023/12/01 02:20:47;;;;;;;52.97;23.63;;;;;;;;;;4990825;28;20459;-86
2023/12/01 02:23:13;;;;;;;46.73;24.10;;;;;;;;;;4983047;28;20575;-87
2023/12/01 02:25:40;;;;;;;54.20;24.13;;;;;;;;;;4986445;28;20456;-86
2023/12/01 02:28:06;;;;;;;48.97;21.43;;;;;;;;;;4985175;28;21154;-87
2023/12/01 02:30:32;;;;;;;46.57;22.30;;;;;;;;;;4990084;28;20448;-87
2023/12/01 02:33:00;;;;;;;42.80;20.97;;;;;;;;;;4999254;28;20531;-87
2023/12/01 02:35:29;;;;;;;49.33;22.23;;;;;;;;;;4981416;28;20481;-87
2023/12/01 02:37:56;;;;;;;54.47;22.70;;;;;;;;;;4985024;28;20464;-85
2023/12/01 02:40:23;;;;;;;54.27;25.93;;;;;;;;;;5001027;28;20527;-86
2023/12/01 02:42:51;;;;;;;48.70;23.33;;;;;;;;;;4981584;28;20523;-86
2023/12/01 02:45:18;;;;;;;61.30;26.07;;;;;;;;;;4982384;28;20460;-86
2023/12/01 02:47:45;;;;;;;46.28;21.50;;;;;;;;;;4989325;28;20492;-86
2023/12/01 02:50:12;;;;;;;41.47;20.57;;;;;;;;;;4984671;28;20252;-87
2023/12/01 02:52:39;;;;;;;56.03;22.53;;;;;;;;;;4998993;28;20467;-86
2023/12/01 02:55:07;;;;;;;53.77;22.43;;;;;;;;;;4999564;28;20456;-85
2023/12/01 02:57:35;;;;;;;56.33;21.87;;;;;;;;;;4991797;28;21070;-86
2023/12/01 03:00:05;;;;;;;50.40;22.83;;;;;;;;;;4990406;28;20471;-86
2023/12/01 03:02:32;;;;;;;41.63;21.33;;;;;;;;;;4986111;28;20800;-87
2023/12/01 03:04:58;;;;;;;50.33;23.73;;;;;;;;;;4994961;28;20456;-86
2023/12/01 03:07:25;;;;;;;47.20;22.70;;;;;;;;;;4987292;28;20480;-84
2023/12/01 03:09:51;;;;;;;44.77;22.67;;;;;;;;;;4991355;28;20467;-86
2023/12/01 03:12:17;;;;;;;45.67;19.93;;;;;;;;;;4983212;28;20492;-86
2023/12/01 03:14:45;;;;;;;44.90;20.80;;;;;;;;;;4988104;28;20532;-85
2023/12/01 03:17:12;;;;;;;57.50;22.93;;;;;;;;;;4986564;28;20571;-85
2023/12/01 03:19:38;;;;;;;47.30;20.50;;;;;;;;;;4986866;28;20467;-85
2023/12/01 03:22:03;;;;;;;45.47;20.60;;;;;;;;;;4985471;28;20488;-85
2023/12/01 03:24:30;;;;;;;49.40;21.03;;;;;;;;;;5000416;28;20463;-85
2023/12/01 03:26:56;;;;;;;43.03;18.27;;;;;;;;;;4996161;28;20290;-86
2023/12/01 03:29:22;;;;;;;48.67;19.33;;;;;;;;;;4989124;28;20849;-85
2023/12/01 03:31:50;;;;;;;49.67;20.90;;;;;;;;;;4983340;28;20469;-86
2023/12/01 03:34:17;;;;;;;44.83;18.30;;;;;;;;;;4984070;28;20548;-85
2023/12/01 03:36:43;;;;;;;48.00;20.93;;;;;;;;;;4993243;28;20548;-86
2023/12/01 03:39:10;;;;;;;40.58;19.33;;;;;;;;;;4999027;28;20463;-86
2023/12/01 03:41:36;;;;;;;42.27;19.33;;;;;;;;;;4986806;28;20220;-87
2023/12/01 03:44:03;;;;;;;45.45;19.27;;;;;;;;;;4982923;28;20477;-86
2023/12/01 03:46:29;;;;;;;40.47;20.73;;;;;;;;;;4986928;28;20215;-86
2023/12/01 03:48:57;;;;;;;42.45;18.98;;;;;;;;;;4991029;28;20252;-87
2023/12/01 03:51:24;;;;;;;44.15;19.25;;;;;;;;;;4988043;28;20219;-87
2023/12/01 03:53:50;;;;;;;44.70;17.87;;;;;;;;;;4988214;28;20532;-85
2023/12/01 03:56:16;;;;;;;36.67;17.20;;;;;;;;;;5000246;28;20479;-87
2023/12/01 03:58:43;;;;;;;48.33;21.20;;;;;;;;;;4994433;28;20292;-86
2023/12/01 04:01:09;;;;;;;45.87;17.50;;;;;;;;;;4986678;28;20460;-87
2023/12/01 04:03:37;;;;;;;37.22;16.77;;;;;;;;;;4990199;28;20586;-87
2023/12/01 04:06:05;;;;;;;47.40;17.50;;;;;;;;;;4988891;28;20213;-86
2023/12/01 04:08:33;;;;;;;49.20;19.23;;;;;;;;;;4992606;28;20471;-88
2023/12/01 04:11:00;;;;;;;41.58;18.08;;;;;;;;;;4991494;28;20477;-87
2023/12/01 04:13:27;;;;;;;46.03;19.07;;;;;;;;;;4994886;28;20248;-87
2023/12/01 04:15:57;;;;;;;45.33;19.07;;;;;;;;;;4988157;28;20485;-86
2023/12/01 04:18:24;;;;;;;45.88;19.98;;;;;;;;;;4989810;28;20456;-86
2023/12/01 04:20:50;;;;;;;40.53;18.95;;;;;;;;;;4989880;28;20272;-86
2023/12/01 04:23:18;;;;;;;44.13;17.27;;;;;;;;;;4983249;28;20273;-87
2023/12/01 04:25:46;;;;;;;40.53;17.10;;;;;;;;;;4990671;28;20519;-88
2023/12/01 04:28:13;;;;;;;47.47;17.50;;;;;;;;;;4993201;28;20542;-86
2023/12/01 04:30:40;;;;;;;36.27;15.93;;;;;;;;;;4991207;28;20275;-87
2023/12/01 04:33:06;;;;;;;42.03;16.42;;;;;;;;;;4988822;28;20479;-87
2023/12/01 04:35:34;;;;;;;35.30;15.98;;;;;;;;;;4982955;28;20241;-87
2023/12/01 04:38:01;;;;;;;39.70;15.32;;;;;;;;;;4987131;28;20303;-88
2023/12/01 04:40:29;;;;;;;33.75;16.25;;;;;;;;;;4989280;28;20213;-87
2023/12/01 04:42:56;;;;;;;37.10;16.50;;;;;;;;;;4986706;28;20222;-87
2023/12/01 04:45:26;;;;;;;38.50;16.20;;;;;;;;;;4993129;28;20483;-86
2023/12/01 04:47:53;;;;;;;34.80;15.13;;;;;;;;;;4989101;28;21024;-88
2023/12/01 04:50:20;;;;;;;35.10;14.25;;;;;;;;;;4991916;28;20503;-87
2023/12/01 04:52:47;;;;;;;39.30;18.55;;;;;;;;;;4987521;28;20248;-84
2023/12/01 04:55:18;;;;;;;32.43;15.30;;;;;;;;;;4989401;28;20267;-87
2023/12/01 04:57:47;;;;;;;38.42;15.35;;;;;;;;;;4988478;28;20507;-87
2023/12/01 05:00:20;;;;;;;37.40;17.23;;;;;;;;;;4984405;28;20221;-87
2023/12/01 05:02:48;;;;;;;41.45;17.65;;;;;;;;;;4998089;28;20240;-87
2023/12/01 05:05:15;;;;;;;46.10;17.70;;;;;;;;;;4991582;28;20208;-87
2023/12/01 05:07:42;;;;;;;46.63;18.75;;;;;;;;;;4987001;28;20209;-87
2023/12/01 05:10:14;;;;;;;32.85;15.88;;;;;;;;;;4982426;28;20249;-88
2023/12/01 05:12:41;;;;;;;36.50;15.85;;;;;;;;;;4999736;28;20217;-87
2023/12/01 05:15:15;;;;;;;36.28;16.95;;;;;;;;;;4988609;28;20280;-87
2023/12/01 05:17:41;;;;;;;40.38;17.13;;;;;;;;;;5000288;28;20259;-87
2023/12/01 05:20:15;;;;;;;38.77;16.70;;;;;;;;;;4989322;28;20312;-87
2023/12/01 05:22:41;;;;;;;33.03;15.65;;;;;;;;;;4992258;28;20451;-88
2023/12/01 05:25:13;;;;;;;35.35;14.75;;;;;;;;;;4994517;28;20285;-87
2023/12/01 05:27:40;;;;;;;34.67;16.53;;;;;;;;;;4997290;28;20224;-87
2023/12/01 05:30:07;;;;;;;36.97;15.55;;;;;;;;;;4987587;28;20532;-84
2023/12/01 05:32:35;;;;;;;32.83;17.40;;;;;;;;;;4987226;28;20220;-85
2023/12/01 05:35:02;;;;;;;27.25;13.45;;;;;;;;;;4993391;28;20220;-85
2023/12/01 05:37:29;;;;;;;40.13;15.77;;;;;;;;;;4988675;28;20216;-85
2023/12/01 05:39:56;;;;;;;36.85;16.83;;;;;;;;;;4986319;28;20471;-84
2023/12/01 05:42:22;;;;;;;36.88;16.63;;;;;;;;;;4984440;28;20228;-85
2023/12/01 05:44:49;;;;;;;34.30;16.93;;;;;;;;;;4980854;28;20259;-86
2023/12/01 05:47:15;;;;;;;41.92;16.98;;;;;;;;;;4983462;28;20540;-85
2023/12/01 05:49:43;;;;;;;38.83;16.27;;;;;;;;;;4979393;28;20228;-84
2023/12/01 05:52:09;;;;;;;36.25;17.00;;;;;;;;;;4982547;28;20272;-85
2023/12/01 05:54:36;;;;;;;47.55;17.13;;;;;;;;;;4981490;28;20281;-84
2023/12/01 05:57:02;;;;;;;39.17;18.38;;;;;;;;;;4981808;28;20317;-84
2023/12/01 05:59:29;;;;;;;46.93;19.30;;;;;;;;;;4983751;28;20331;-85
2023/12/01 06:01:58;;;;;;;48.65;20.10;;;;;;;;;;4983607;28;20490;-85
2023/12/01 06:04:25;;;;;;;44.03;20.07;;;;;;;;;;4986818;28;20212;-85
2023/12/01 06:06:53;;;;;;;52.55;19.75;;;;;;;;;;4983926;28;20472;-85
2023/12/01 06:09:19;;;;;;;40.17;18.67;;;;;;;;;;4984540;28;20221;-84
2023/12/01 06:11:45;;;;;;;41.77;18.50;;;;;;;;;;4981191;28;20220;-84
2023/12/01 06:14:12;;;;;;;42.67;19.45;;;;;;;;;;4981823;28;20940;-85
2023/12/01 06:16:39;;;;;;;41.67;17.87;;;;;;;;;;4983760;28;20245;-85
2023/12/01 06:19:05;;;;;;;38.00;16.00;;;;;;;;;;4984913;28;20481;-84
2023/12/01 06:21:32;;;;;;;39.85;17.10;;;;;;;;;;4993504;28;20213;-84
2023/12/01 06:24:00;;;;;;;35.30;17.63;;;;;;;;;;4980474;28;20237;-84
2023/12/01 06:26:26;;;;;;;34.55;17.40;;;;;;;;;;4988478;28;20296;-82
2023/12/01 06:28:52;;;;;;;41.78;17.52;;;;;;;;;;4984551;28;20209;-84
2023/12/01 06:31:19;;;;;;;40.50;18.20;;;;;;;;;;4987948;28;20251;-84
2023/12/01 06:33:45;;;;;;;36.83;18.37;;;;;;;;;;4994023;28;20487;-83
2023/12/01 06:36:12;;;;;;;39.13;17.23;;;;;;;;;;4991664;28;20570;-82
2023/12/01 06:38:38;;;;;;;37.25;18.85;;;;;;;;;;5001795;28;20259;-84
2023/12/01 06:41:06;;;;;;;39.63;17.90;;;;;;;;;;5000029;28;20216;-84
2023/12/01 06:43:32;;;;;;;33.10;18.30;;;;;;;;;;4989512;28;20209;-83
2023/12/01 06:46:00;;;;;;;29.50;16.58;;;;;;;;;;4998661;28;20275;-83
2023/12/01 06:48:26;;;;;;;40.70;17.95;;;;;;;;;;4994187;28;20277;-83
2023/12/01 06:50:52;;;;;;;39.78;16.50;;;;;;;;;;4989247;28;20494;-83
2023/12/01 06:53:19;;;;;;;35.28;18.42;;;;;;;;;;4994773;28;20317;-82
2023/12/01 06:55:45;;;;;;;31.13;17.27;;;;;;;;;;4986981;28;20243;-82
2023/12/01 06:58:13;;;;;;;35.17;16.25;;;;;;;;;;4991296;28;20256;-82
2023/12/01 07:00:39;;;;;;;37.47;18.10;;;;;;;;;;4988961;28;20300;-83
2023/12/01 07:03:07;;;;;;;29.90;15.10;;;;;;;;;;4994493;28;20773;-82
2023/12/01 07:05:35;;;;;;;43.50;17.85;;;;;;;;;;4991256;28;20291;-83
2023/12/01 07:08:03;;;;;;;36.30;16.77;;;;;;;;;;4992529;28;20248;-83
2023/12/01 07:10:32;;;;;;;36.33;17.92;;;;;;;;;;4992870;28;20216;-83
2023/12/01 07:12:59;;;;;;;38.65;17.85;;;;;;;;;;4990663;28;20220;-83
2023/12/01 07:15:27;;;;;;;35.03;16.88;;;;;;;;;;4998491;28;20302;-82
2023/12/01 07:17:54;;;;;;;35.83;17.10;;;;;;;;;;5003678;28;20300;-81
2023/12/01 07:20:21;;;;;;;35.97;18.30;;;;;;;;;;4999096;28;20261;-83
2023/12/01 07:22:48;;;;;;;38.47;17.38;;;;;;;;;;4994974;28;20279;-83
2023/12/01 07:25:22;;;;;;;37.00;18.63;;;;;;;;;;5002466;28;20236;-82
2023/12/01 07:27:49;;;;;;;42.97;19.48;;;;;;;;;;4996975;28;20204;-82
2023/12/01 07:30:16;;;;;;;34.45;18.10;;;;;;;;;;5001109;28;20218;-82
2023/12/01 07:32:44;;;;;;;32.53;18.25;;;;;;;;;;4984899;28;20225;-83
2023/12/01 07:35:12;;;;;;;27.67;15.70;;;;;;;;;;4996403;28;20839;-82
2023/12/01 07:37:38;;;;;;;44.00;17.60;;;;;;;;;;4987826;28;20517;-83
2023/12/01 07:40:06;;;;;;;34.35;16.25;;;;;;;;;;4995999;28;20216;-82
2023/12/01 07:42:33;;;;;;;25.75;13.95;;;;;;;;;;4986305;28;20219;-83
2023/12/01 07:45:00;;;;;;;31.52;16.05;;;;;;;;;;4993201;28;20212;-84
2023/12/01 07:47:26;;;;;;;25.05;15.13;;;;;;;;;;4996554;28;20196;-85
2023/12/01 07:49:54;;;;;;;31.92;15.07;;;;;;;;;;4998334;28;20220;-85
2023/12/01 07:52:20;;;;;;;29.30;16.83;;;;;;;;;;5001794;28;20243;-85
2023/12/01 07:54:48;;;;;;;31.05;14.63;;;;;;;;;;4987801;28;20221;-85
2023/12/01 07:57:14;;;;;;;35.28;14.25;;;;;;;;;;5000742;28;20250;-87
2023/12/01 07:59:41;;;;;;;24.10;14.55;;;;;;;;;;5004564;28;20224;-84
2023/12/01 08:02:09;;;;;;;20.73;13.38;;;;;;;;;;4986474;28;20335;-86
2023/12/01 08:04:36;;;;;;;24.08;14.02;;;;;;;;;;5000326;28;20279;-86
2023/12/01 08:07:04;;;;;;;25.25;13.45;;;;;;;;;;4992183;28;20208;-85
2023/12/01 08:09:31;;;;;;;21.83;14.00;;;;;;;;;;4994465;28;20269;-84
2023/12/01 08:11:58;;;;;;;24.17;15.40;;;;;;;;;;4999310;28;20208;-83
2023/12/01 08:14:28;;;;;;;27.37;15.20;;;;;;;;;;4996010;28;20491;-85
2023/12/01 08:16:54;;;;;;;23.30;14.32;;;;;;;;;;4990913;28;20488;-85
2023/12/01 08:19:21;;;;;;;20.42;13.00;;;;;;;;;;4992369;28;20231;-85
2023/12/01 08:21:47;;;;;;;24.30;14.27;;;;;;;;;;4995263;28;20496;-86
2023/12/01 08:24:17;;;;;;;22.87;13.80;;;;;;;;;;4983876;28;20221;-85
2023/12/01 08:26:43;;;;;;;22.73;14.38;;;;;;;;;;4998336;28;20478;-86
2023/12/01 08:29:10;;;;;;;19.42;13.73;;;;;;;;;;5006591;28;20239;-86
2023/12/01 08:31:38;;;;;;;18.07;12.43;;;;;;;;;;4984912;28;20241;-86
2023/12/01 08:34:07;;;;;;;22.17;13.40;;;;;;;;;;4988212;28;20471;-84
2023/12/01 08:36:34;;;;;;;23.08;13.45;;;;;;;;;;4996914;28;20467;-84
2023/12/01 08:39:02;;;;;;;21.05;14.02;;;;;;;;;;4996076;28;20236;-85
2023/12/01 08:41:30;;;;;;;19.05;12.65;;;;;;;;;;4986973;28;20209;-85
2023/12/01 08:43:56;;;;;;;18.13;12.65;;;;;;;;;;4991916;28;20804;-87
2023/12/01 08:46:23;;;;;;;18.73;13.48;;;;;;;;;;4992083;28;20217;-86
2023/12/01 08:48:50;;;;;;;19.08;14.15;;;;;;;;;;4988977;28;20213;-86
2023/12/01 08:51:16;;;;;;;16.90;12.87;;;;;;;;;;4984718;28;20213;-85
2023/12/01 08:53:43;;;;;;;22.60;12.90;;;;;;;;;;4986093;28;20468;-86
2023/12/01 08:56:09;;;;;;;19.42;13.20;;;;;;;;;;4985698;28;20453;-87
2023/12/01 08:58:37;;;;;;;19.25;12.32;;;;;;;;;;5004007;28;20233;-83
2023/12/01 09:01:04;;;;;;;20.85;13.32;;;;;;;;;;4993994;28;20209;-83
2023/12/01 09:03:30;;;;;;;18.33;12.75;;;;;;;;;;4987517;28;20233;-84
2023/12/01 09:05:57;;;;;;;16.02;11.98;;;;;;;;;;4992671;28;20307;-85
2023/12/01 09:08:23;;;;;;;19.25;13.35;;;;;;;;;;4986439;28;20233;-85
2023/12/01 09:10:49;;;;;;;18.27;13.48;;;;;;;;;;4985728;28;20267;-85
2023/12/01 09:13:16;;;;;;;21.92;13.95;;;;;;;;;;4983402;28;20236;-84
2023/12/01 09:15:44;;;;;;;21.55;12.50;;;;;;;;;;4981989;28;20209;-85
2023/12/01 09:18:10;;;;;;;18.97;12.70;;;;;;;;;;4995101;28;20231;-86
2023/12/01 09:20:37;;;;;;;21.20;14.00;;;;;;;;;;4990478;28;20476;-87
2023/12/01 09:23:03;;;;;;;21.70;13.25;;;;;;;;;;4985844;28;20458;-86
2023/12/01 09:25:30;;;;;;;23.73;13.07;;;;;;;;;;4995986;28;20223;-86
2023/12/01 09:27:57;;;;;;;19.93;14.73;;;;;;;;;;4995483;28;20208;-86
2023/12/01 09:30:23;;;;;;;13.80;11.85;;;;;;;;;;4986540;28;20470;-82
2023/12/01 09:32:51;;;;;;;22.30;13.75;;;;;;;;;;4984522;28;20209;-84
2023/12/01 09:35:19;;;;;;;20.42;14.05;;;;;;;;;;4983947;28;20229;-85
2023/12/01 09:37:46;;;;;;;22.27;14.05;;;;;;;;;;4982566;28;20678;-84
2023/12/01 09:40:13;;;;;;;20.50;13.30;;;;;;;;;;4988431;28;20212;-85
2023/12/01 09:42:39;;;;;;;22.40;14.70;;;;;;;;;;4986062;28;20209;-86
2023/12/01 09:45:09;;;;;;;18.40;13.75;;;;;;;;;;4986123;28;20220;-84
2023/12/01 09:47:39;;;;;;;18.90;12.40;;;;;;;;;;4988782;28;20240;-84
2023/12/01 09:50:10;;;;;;;17.38;12.38;;;;;;;;;;4985084;28;20216;-84
2023/12/01 09:52:36;;;;;;;18.20;12.85;;;;;;;;;;4985283;28;20216;-85
2023/12/01 09:55:04;;;;;;;16.77;12.27;;;;;;;;;;4983863;28;20225;-84
2023/12/01 09:57:30;;;;;;;21.60;14.88;;;;;;;;;;4987935;28;20853;-83
2023/12/01 09:59:57;;;;;;;20.80;13.88;;;;;;;;;;4995381;28;20227;-85
2023/12/01 10:02:26;;;;;;;22.63;14.18;;;;;;;;;;4985053;28;20259;-85
2023/12/01 10:05:00;;;;;;;20.48;13.80;;;;;;;;;;4991810;28;20259;-85
2023/12/01 10:07:28;;;;;;;22.25;13.57;;;;;;;;;;4982756;28;20283;-85
2023/12/01 10:09:54;;;;;;;21.95;15.57;;;;;;;;;;4996746;28;20255;-84
2023/12/01 10:12:20;;;;;;;18.25;12.70;;;;;;;;;;4988860;28;20220;-84
2023/12/01 10:14:47;;;;;;;18.20;12.50;;;;;;;;;;4990059;28;20277;-82
2023/12/01 10:17:14;;;;;;;18.35;12.32;;;;;;;;;;4981646;28;20677;-84
2023/12/01 10:19:44;;;;;;;21.00;13.80;;;;;;;;;;4993684;28;20251;-84
2023/12/01 10:22:11;;;;;;;20.25;12.27;;;;;;;;;;4981534;28;20297;-84
2023/12/01 10:24:39;;;;;;;19.15;12.75;;;;;;;;;;4996314;28;20247;-83
2023/12/01 10:27:08;;;;;;;18.30;13.10;;;;;;;;;;4989721;28;20240;-83
2023/12/01 10:29:35;;;;;;;18.20;12.50;;;;;;;;;;4982109;28;20460;-84
2023/12/01 10:32:03;;;;;;;15.85;13.35;;;;;;;;;;4981935;28;20216;-84
2023/12/01 10:34:29;;;;;;;19.48;14.20;;;;;;;;;;4982527;28;20286;-83
2023/12/01 10:36:57;;;;;;;21.83;13.83;;;;;;;;;;4985937;28;20408;-84
2023/12/01 10:39:25;;;;;;;19.10;13.15;;;;;;;;;;4994682;28;20566;-84
2023/12/01 10:41:55;;;;;;;17.58;12.75;;;;;;;;;;4998053;28;20613;-84
2023/12/01 10:44:22;;;;;;;15.60;12.20;;;;;;;;;;4985886;28;20216;-83
2023/12/01 10:46:49;;;;;;;18.38;13.30;;;;;;;;;;4993828;28;20220;-84
2023/12/01 10:49:17;;;;;;;17.17;12.90;;;;;;;;;;5002981;28;20228;-83
2023/12/01 10:51:44;;;;;;;14.70;12.45;;;;;;;;;;4989279;28;20464;-84
2023/12/01 10:54:11;;;;;;;15.13;11.90;;;;;;;;;;4984195;28;20245;-85
2023/12/01 10:56:41;;;;;;;17.90;13.30;;;;;;;;;;4980592;28;20805;-82
2023/12/01 10:59:10;;;;;;;16.23;12.87;;;;;;;;;;4979666;28;20303;-83
2023/12/01 11:01:37;;;;;;;17.27;12.25;;;;;;;;;;4979416;28;20482;-84
2023/12/01 11:04:06;;;;;;;17.88;13.50;;;;;;;;;;4982612;28;20244;-85
2023/12/01 11:06:39;;;;;;;17.35;14.02;;;;;;;;;;4985015;28;20556;-84
2023/12/01 11:09:11;;;;;;;18.20;12.93;;;;;;;;;;4986687;28;20208;-84
2023/12/01 11:11:43;;;;;;;21.23;14.83;;;;;;;;;;4983626;28;20452;-84
2023/12/01 11:14:16;;;;;;;16.98;12.85;;;;;;;;;;4987797;28;20488;-83
2023/12/01 11:16:43;;;;;;;20.73;15.38;;;;;;;;;;4989604;28;20249;-84
2023/12/01 11:19:10;;;;;;;22.75;16.77;;;;;;;;;;4994328;28;20264;-84
2023/12/01 11:21:37;;;;;;;20.50;15.93;;;;;;;;;;4983160;28;20209;-84
2023/12/01 11:24:22;;;;;;;23.10;18.13;;;;;;;;;;4985085;28;20251;-85
2023/12/01 11:26:49;;;;;;;22.92;17.77;;;;;;;;;;4992312;28;20554;-84
2023/12/01 11:29:28;;;;;;;20.30;14.80;;;;;;;;;;4984490;28;20209;-84
2023/12/01 11:31:57;;;;;;;24.15;14.60;;;;;;;;;;4983406;28;20855;-84
2023/12/01 11:34:24;;;;;;;18.60;14.68;;;;;;;;;;4989647;28;20216;-84
2023/12/01 11:36:51;;;;;;;22.58;16.45;;;;;;;;;;4989157;28;20213;-84
2023/12/01 11:39:17;;;;;;;20.13;16.40;;;;;;;;;;4996777;28;20686;-83
2023/12/01 11:41:59;;;;;;;22.70;19.60;;;;;;;;;;4985269;28;20307;-83
2023/12/01 11:44:29;;;;;;;22.08;19.40;;;;;;;;;;4966791;28;20985;-82
2023/12/01 11:46:59;;;;;;;23.80;19.27;;;;;;;;;;4981808;28;20220;-84
2023/12/01 11:49:26;;;;;;;22.65;18.20;;;;;;;;;;4986657;28;20235;-85
2023/12/01 11:51:53;;;;;;;20.73;17.47;;;;;;;;;;4991126;28;20355;-83
2023/12/01 11:54:20;;;;;;;21.75;19.42;;;;;;;;;;4989437;28;20472;-83
2023/12/01 11:56:47;;;;;;;26.70;18.60;;;;;;;;;;4985804;28;20856;-84
2023/12/01 11:59:14;;;;;;;22.07;16.90;;;;;;;;;;4984144;28;20565;-83
2023/12/01 12:01:41;;;;;;;22.77;16.63;;;;;;;;;;4991770;28;20491;-84
2023/12/01 12:04:11;;;;;;;18.95;15.82;;;;;;;;;;4990401;28;20471;-83
2023/12/01 12:06:37;;;;;;;20.73;16.13;;;;;;;;;;4989618;28;20209;-83
2023/12/01 12:09:06;;;;;;;16.07;14.47;;;;;;;;;;4991983;28;20242;-84
2023/12/01 12:11:33;;;;;;;20.87;16.10;;;;;;;;;;4987051;28;20456;-82
2023/12/01 12:14:01;;;;;;;21.33;15.40;;;;;;;;;;4991407;28;20500;-84
2023/12/01 12:16:28;;;;;;;19.13;16.80;;;;;;;;;;4982051;28;20463;-84
2023/12/01 12:18:59;;;;;;;17.73;15.33;;;;;;;;;;4984092;28;20987;-83
2023/12/01 12:21:25;;;;;;;18.57;15.83;;;;;;;;;;4986981;28;20490;-81
2023/12/01 12:23:52;;;;;;;15.15;13.45;;;;;;;;;;4996459;28;20566;-85
2023/12/01 12:26:20;;;;;;;19.60;13.80;;;;;;;;;;4984611;28;20210;-83
2023/12/01 12:28:48;;;;;;;17.50;15.07;;;;;;;;;;4981970;28;20817;-80
2023/12/01 12:31:14;;;;;;;16.90;13.93;;;;;;;;;;4981356;28;20544;-82
2023/12/01 12:33:41;;;;;;;17.25;15.55;;;;;;;;;;4985139;28;20512;-82
2023/12/01 12:36:10;;;;;;;18.88;13.45;;;;;;;;;;4988553;28;20236;-83
2023/12/01 12:38:36;;;;;;;15.97;14.27;;;;;;;;;;4987342;28;20237;-84
2023/12/01 12:41:04;;;;;;;15.67;14.17;;;;;;;;;;4981940;28;20495;-83
2023/12/01 12:43:32;;;;;;;15.30;13.88;;;;;;;;;;4984713;28;20461;-83
2023/12/01 12:45:59;;;;;;;15.75;14.05;;;;;;;;;;4983342;28;20213;-82
2023/12/01 12:48:26;;;;;;;17.17;14.18;;;;;;;;;;4980214;28;20205;-82
2023/12/01 12:50:53;;;;;;;16.90;15.30;;;;;;;;;;4987944;28;20221;-83
2023/12/01 12:53:21;;;;;;;16.07;14.57;;;;;;;;;;4982868;28;20483;-82
2023/12/01 12:55:47;;;;;;;14.77;13.47;;;;;;;;;;4984731;28;20460;-84
2023/12/01 12:58:14;;;;;;;15.97;14.20;;;;;;;;;;4986847;28;20563;-84
2023/12/01 13:00:41;;;;;;;14.82;13.30;;;;;;;;;;4981922;28;20453;-82
2023/12/01 13:03:07;;;;;;;14.90;13.50;;;;;;;;;;4980312;28;20240;-82
2023/12/01 13:05:34;;;;;;;15.00;13.50;;;;;;;;;;4986052;28;20563;-79
2023/12/01 13:08:00;;;;;;;17.27;15.57;;;;;;;;;;4982911;28;20506;-84
2023/12/01 13:10:28;;;;;;;14.90;13.50;;;;;;;;;;4985348;28;20484;-84
2023/12/01 13:12:54;;;;;;;15.83;14.23;;;;;;;;;;4995633;28;20521;-84
2023/12/01 13:15:21;;;;;;;16.03;14.27;;;;;;;;;;4994359;28;20465;-84
2023/12/01 13:17:47;;;;;;;14.10;12.77;;;;;;;;;;4984722;28;20476;-84
2023/12/01 13:20:14;;;;;;;14.97;13.60;;;;;;;;;;4986541;28;20523;-83
2023/12/01 13:22:40;;;;;;;12.67;11.67;;;;;;;;;;4983103;28;20492;-84
2023/12/01 13:25:08;;;;;;;16.90;15.13;;;;;;;;;;4984607;28;20456;-83
2023/12/01 13:27:37;;;;;;;16.03;14.43;;;;;;;;;;4990294;28;20857;-84
2023/12/01 13:30:04;;;;;;;14.95;13.43;;;;;;;;;;4988941;28;20465;-83
2023/12/01 13:32:30;;;;;;;13.20;11.90;;;;;;;;;;4989213;28;20216;-80
2023/12/01 13:34:57;;;;;;;13.88;12.15;;;;;;;;;;4992050;28;20468;-83
2023/12/01 13:37:23;;;;;;;12.88;11.63;;;;;;;;;;4990180;28;20744;-83
2023/12/01 13:39:50;;;;;;;12.20;10.90;;;;;;;;;;4988533;28;20229;-84
2023/12/01 13:42:16;;;;;;;13.05;11.02;;;;;;;;;;4994815;28;20240;-83
2023/12/01 13:44:44;;;;;;;13.35;11.55;;;;;;;;;;4993447;28;20217;-82
2023/12/01 13:47:11;;;;;;;13.30;11.63;;;;;;;;;;4991358;28;20216;-82
2023/12/01 13:49:37;;;;;;;15.15;13.55;;;;;;;;;;4982686;28;20217;-84
2023/12/01 13:52:04;;;;;;;19.77;16.10;;;;;;;;;;4989710;28;20224;-81
2023/12/01 13:54:30;;;;;;;17.23;15.63;;;;;;;;;;4986128;28;20236;-82
2023/12/01 13:56:57;;;;;;;18.05;16.55;;;;;;;;;;4986181;28;20451;-84
2023/12/01 13:59:24;;;;;;;17.88;16.15;;;;;;;;;;4991589;28;20231;-82
2023/12/01 14:01:52;;;;;;;19.02;17.30;;;;;;;;;;4992349;28;20331;-85
2023/12/01 14:04:18;;;;;;;16.10;14.60;;;;;;;;;;4986928;28;20262;-82
2023/12/01 14:06:45;;;;;;;14.27;12.93;;;;;;;;;;4989324;28;20223;-83
2023/12/01 14:09:12;;;;;;;15.27;13.68;;;;;;;;;;4987839;28;20486;-83
2023/12/01 14:11:37;;;;;;;15.53;12.70;;;;;;;;;;4990163;28;20209;-84
2023/12/01 14:14:04;;;;;;;16.50;14.27;;;;;;;;;;4985760;28;20483;-82
2023/12/01 14:16:32;;;;;;;17.38;14.60;;;;;;;;;;4988220;28;20470;-84